Time;durP1;ratioP1;P1;durP2;ratioP2;P2;SDS_P1;SDS_P2;PMS_P1;PMS_P2;Temp;Humidity;BMP_temperature;BMP_pressure;BME280_temperature;BME280_humidity;BME280_pressure;Samples;Min_cycle;Max_cycle;Signal;HPM_P1;HPM_P2
2021/01/05 00:01:36;;;;;;;17.23;14.10;;;2.70;99.90;;;;;;5016331;28;20541;-87
2021/01/05 00:04:03;;;;;;;22.13;15.10;;;2.70;99.90;;;;;;5027907;28;20542;-87
2021/01/05 00:06:30;;;;;;;18.48;14.05;;;2.70;99.90;;;;;;5018227;28;20470;-88
2021/01/05 00:08:59;;;;;;;17.87;13.83;;;2.60;99.90;;;;;;5024818;28;20202;-89
2021/01/05 00:11:25;;;;;;;18.00;13.37;;;2.70;99.90;;;;;;5020958;28;20492;-88
2021/01/05 00:13:52;;;;;;;20.30;15.30;;;2.70;99.90;;;;;;5023845;28;20568;-88
2021/01/05 00:16:19;;;;;;;18.97;13.93;;;2.70;99.90;;;;;;5014484;28;20449;-88
2021/01/05 00:19:15;;;;;;;18.00;14.73;;;2.70;99.90;;;;;;5017385;28;20445;-88
2021/01/05 00:22:04;;;;;;;18.50;13.90;;;2.60;99.90;;;;;;5014136;28;20567;-88
2021/01/05 00:24:31;;;;;;;18.73;13.10;;;2.60;99.90;;;;;;5004347;28;20231;-87
2021/01/05 00:26:58;;;;;;;18.30;14.30;;;2.70;99.90;;;;;;4983578;28;20985;-88
2021/01/05 00:29:34;;;;;;;20.73;14.03;;;2.60;99.90;;;;;;4995539;28;20466;-88
2021/01/05 00:32:24;;;;;;;18.33;14.17;;;2.70;99.90;;;;;;4989625;28;20501;-88
2021/01/05 00:35:00;;;;;;;18.50;14.07;;;2.70;99.90;;;;;;4996140;28;20494;-87
2021/01/05 00:37:27;;;;;;;19.63;14.60;;;2.60;99.90;;;;;;4990037;28;20529;-88
2021/01/05 00:39:53;;;;;;;21.77;15.27;;;2.60;99.90;;;;;;4996672;28;20466;-87
2021/01/05 00:42:20;;;;;;;18.83;13.53;;;2.60;99.90;;;;;;4996723;28;20223;-88
2021/01/05 00:45:43;;;;;;;19.43;14.30;;;2.70;99.90;;;;;;5004536;28;20446;-89
2021/01/05 00:48:10;;;;;;;20.40;14.60;;;2.60;99.90;;;;;;4932166;28;20466;-86
2021/01/05 00:50:43;;;;;;;21.02;15.30;;;2.70;99.90;;;;;;4968747;28;20462;-86
2021/01/05 00:53:15;;;;;;;16.90;13.07;;;2.70;99.90;;;;;;5010548;28;20648;-88
2021/01/05 00:55:50;;;;;;;17.67;12.47;;;2.70;99.90;;;;;;4997195;28;20254;-87
2021/01/05 00:58:16;;;;;;;19.17;14.43;;;2.70;99.90;;;;;;5006629;28;20489;-88
2021/01/05 01:00:43;;;;;;;20.03;14.17;;;2.60;99.90;;;;;;4985816;28;20535;-88
2021/01/05 01:03:17;;;;;;;18.98;14.82;;;2.60;99.90;;;;;;4999266;28;20540;-89
2021/01/05 01:05:44;;;;;;;19.27;13.07;;;2.70;99.90;;;;;;4999468;28;20670;-88
2021/01/05 01:08:22;;;;;;;19.07;13.93;;;2.70;99.90;;;;;;5003071;28;20450;-87
2021/01/05 01:10:49;;;;;;;17.20;13.07;;;2.70;99.90;;;;;;5001004;28;20915;-87
2021/01/05 01:13:16;;;;;;;17.10;13.27;;;2.70;99.90;;;;;;5000760;28;20455;-88
2021/01/05 01:15:52;;;;;;;16.97;12.80;;;2.70;99.90;;;;;;5010243;28;20493;-86
2021/01/05 01:18:19;;;;;;;18.20;13.27;;;2.70;99.90;;;;;;5021186;28;20532;-86
2021/01/05 01:21:11;;;;;;;18.30;13.47;;;2.70;99.90;;;;;;5026574;28;20461;-88
2021/01/05 01:23:37;;;;;;;16.80;12.20;;;2.70;99.90;;;;;;5006185;28;20545;-87
2021/01/05 01:26:03;;;;;;;21.33;12.40;;;2.70;99.90;;;;;;5015845;28;20574;-87
2021/01/05 01:29:06;;;;;;;17.87;13.40;;;2.70;99.90;;;;;;5017314;28;20489;-87
2021/01/05 01:31:33;;;;;;;18.17;13.10;;;2.80;99.90;;;;;;5014839;28;20450;-87
2021/01/05 01:34:14;;;;;;;18.10;13.60;;;2.80;99.90;;;;;;5016348;28;20487;-88
2021/01/05 01:36:44;;;;;;;17.60;12.87;;;2.80;99.90;;;;;;5015360;28;20512;-87
2021/01/05 01:39:10;;;;;;;20.43;13.83;;;2.80;99.90;;;;;;5014573;28;20492;-89
2021/01/05 01:41:39;;;;;;;19.53;13.80;;;2.80;99.90;;;;;;5014458;28;20508;-87
2021/01/05 01:44:06;;;;;;;15.40;11.73;;;2.80;99.90;;;;;;5015559;28;20542;-87
2021/01/05 01:46:38;;;;;;;18.00;13.40;;;2.80;99.90;;;;;;5014309;28;20452;-88
2021/01/05 01:49:08;;;;;;;17.00;12.80;;;2.80;99.90;;;;;;5014825;28;20474;-88
2021/01/05 01:51:35;;;;;;;16.13;11.87;;;2.80;99.90;;;;;;5015394;28;20444;-86
2021/01/05 01:54:44;;;;;;;20.93;13.40;;;2.80;99.90;;;;;;5015668;28;20539;-88
2021/01/05 01:57:53;;;;;;;17.77;12.33;;;2.80;99.90;;;;;;5006393;28;20543;-87
2021/01/05 02:01:02;;;;;;;19.13;13.00;;;2.80;99.90;;;;;;5001787;28;20573;-87
2021/01/05 02:04:16;;;;;;;19.47;14.00;;;2.80;99.90;;;;;;4973150;28;20485;-87
2021/01/05 02:07:11;;;;;;;23.97;15.63;;;2.90;99.90;;;;;;5014743;28;20457;-87
2021/01/05 02:09:48;;;;;;;22.10;16.50;;;2.80;99.90;;;;;;5016370;28;20911;-87
2021/01/05 02:13:14;;;;;;;22.07;14.57;;;2.80;99.90;;;;;;5015195;28;20449;-88
2021/01/05 02:16:04;;;;;;;18.73;13.57;;;2.80;99.90;;;;;;4997307;28;20505;-89
2021/01/05 02:18:45;;;;;;;17.50;14.63;;;2.80;99.90;;;;;;5015609;28;20488;-88
2021/01/05 02:21:22;;;;;;;23.70;14.37;;;2.70;99.90;;;;;;4995135;28;20465;-87
2021/01/05 02:24:37;;;;;;;20.43;15.33;;;2.80;99.90;;;;;;5008086;28;20902;-87
2021/01/05 02:27:36;;;;;;;25.05;15.65;;;2.70;99.90;;;;;;4978269;28;20606;-87
2021/01/05 02:37:00;;;;;;;18.83;14.40;;;2.70;99.90;;;;;;4999815;28;20845;-86
2021/01/05 02:40:04;;;;;;;21.13;14.93;;;2.70;99.90;;;;;;5013590;28;20412;-87
2021/01/05 02:43:13;;;;;;;23.40;16.27;;;2.80;99.90;;;;;;5013257;28;20434;-88
2021/01/05 02:46:18;;;;;;;21.67;15.67;;;2.70;99.90;;;;;;4998142;28;20960;-88
2021/01/05 02:49:29;;;;;;;22.60;15.43;;;2.60;99.90;;;;;;4995215;28;20443;-87
2021/01/05 02:52:29;;;;;;;23.15;16.23;;;2.70;99.90;;;;;;4986318;28;20421;-87
2021/01/05 02:55:39;;;;;;;23.15;16.00;;;2.70;99.90;;;;;;4979536;28;20236;-88
2021/01/05 02:58:35;;;;;;;24.57;14.83;;;2.70;99.90;;;;;;5013265;28;20665;-88
2021/01/05 03:02:02;;;;;;;22.60;16.38;;;2.70;99.90;;;;;;5007691;28;20537;-87
2021/01/05 03:04:28;;;;;;;23.40;15.43;;;2.60;99.90;;;;;;4966532;28;20283;-88
2021/01/05 03:07:05;;;;;;;25.97;15.67;;;2.70;99.90;;;;;;4998762;28;20580;-88
2021/01/05 03:10:00;;;;;;;23.50;16.92;;;2.70;99.90;;;;;;5010700;28;20453;-87
2021/01/05 03:12:45;;;;;;;21.40;16.00;;;2.70;99.90;;;;;;5012747;28;20526;-86
2021/01/05 03:15:43;;;;;;;25.40;17.67;;;2.80;99.90;;;;;;5001474;28;20501;-87
2021/01/05 03:18:23;;;;;;;21.10;14.93;;;2.80;99.90;;;;;;5013935;28;20964;-88
2021/01/05 03:21:01;;;;;;;25.00;17.00;;;2.80;99.90;;;;;;5014233;28;20647;-88
2021/01/05 03:23:44;;;;;;;24.13;16.87;;;2.80;99.90;;;;;;5013332;28;20491;-88
2021/01/05 03:26:19;;;;;;;22.92;16.25;;;2.90;99.90;;;;;;5014140;28;20446;-87
2021/01/05 03:28:46;;;;;;;22.53;16.07;;;2.70;99.90;;;;;;5013621;28;20205;-86
2021/01/05 03:31:19;;;;;;;21.23;14.73;;;2.80;99.90;;;;;;5013364;28;20504;-86
2021/01/05 03:33:50;;;;;;;25.03;17.13;;;2.90;99.90;;;;;;5013635;28;20446;-87
2021/01/05 03:36:19;;;;;;;22.63;15.53;;;2.80;99.90;;;;;;5013637;28;20458;-87
2021/01/05 03:39:27;;;;;;;21.23;14.47;;;2.80;99.90;;;;;;5013040;28;20826;-87
2021/01/05 03:41:57;;;;;;;19.90;13.70;;;2.80;99.90;;;;;;5013606;28;20503;-88
2021/01/05 03:44:35;;;;;;;24.67;16.23;;;2.80;99.90;;;;;;5013120;28;20490;-87
2021/01/05 03:47:01;;;;;;;21.83;16.40;;;2.80;99.90;;;;;;5013812;28;20447;-87
2021/01/05 03:49:38;;;;;;;23.53;15.57;;;2.80;99.90;;;;;;5012855;28;20537;-88
2021/01/05 03:52:05;;;;;;;21.57;15.47;;;2.90;99.90;;;;;;5005743;28;20461;-87
2021/01/05 03:54:31;;;;;;;21.80;15.70;;;2.80;99.90;;;;;;5014126;28;20489;-88
2021/01/05 03:57:06;;;;;;;22.50;15.77;;;2.90;99.90;;;;;;5017398;28;20448;-87
2021/01/05 03:59:33;;;;;;;21.43;14.93;;;2.90;99.90;;;;;;5011381;28;20691;-88
2021/01/05 04:01:59;;;;;;;24.60;15.17;;;2.90;99.90;;;;;;5011897;28;20533;-86
2021/01/05 04:04:32;;;;;;;20.10;15.30;;;2.90;99.90;;;;;;5016504;28;20541;-87
2021/01/05 04:07:02;;;;;;;21.27;16.10;;;2.90;99.90;;;;;;5016847;28;20481;-89
2021/01/05 04:09:31;;;;;;;19.53;15.03;;;2.90;99.90;;;;;;5016131;28;20532;-88
2021/01/05 04:12:24;;;;;;;20.77;16.03;;;2.90;99.90;;;;;;5017918;28;20458;-87
2021/01/05 04:14:57;;;;;;;24.27;15.88;;;2.90;99.90;;;;;;5015696;28;20552;-88
2021/01/05 04:17:23;;;;;;;20.47;14.80;;;2.90;99.90;;;;;;5016321;28;20467;-89
2021/01/05 04:19:50;;;;;;;23.90;17.00;;;2.90;99.90;;;;;;5016826;28;20560;-88
2021/01/05 04:23:03;;;;;;;22.13;15.37;;;2.80;99.90;;;;;;5016441;28;20984;-88
2021/01/05 04:25:30;;;;;;;22.70;15.03;;;2.80;99.90;;;;;;4990076;28;20509;-87
2021/01/05 04:28:01;;;;;;;23.40;15.20;;;2.80;99.90;;;;;;5006629;28;20541;-90
2021/01/05 04:30:30;;;;;;;26.23;17.60;;;2.90;99.90;;;;;;5009619;28;20525;-87
2021/01/05 04:32:59;;;;;;;23.53;15.63;;;2.80;99.90;;;;;;5015033;28;20546;-88
2021/01/05 04:35:26;;;;;;;25.30;17.40;;;2.80;99.90;;;;;;5016287;28;20524;-88
2021/01/05 04:37:53;;;;;;;21.83;15.20;;;2.80;99.90;;;;;;5017004;28;20446;-87
2021/01/05 04:40:26;;;;;;;21.43;15.37;;;2.80;99.90;;;;;;5016465;28;20460;-89
2021/01/05 04:43:20;;;;;;;25.10;15.90;;;2.80;99.90;;;;;;5034516;28;20512;-88
2021/01/05 04:45:55;;;;;;;22.53;17.07;;;2.90;99.90;;;;;;5034149;28;20898;-88
2021/01/05 04:48:33;;;;;;;21.93;14.93;;;2.90;99.90;;;;;;5036891;28;20540;-91
2021/01/05 04:51:04;;;;;;;21.93;15.13;;;2.90;99.90;;;;;;5029901;28;20477;-88
2021/01/05 04:53:37;;;;;;;23.63;16.30;;;2.90;99.90;;;;;;5020556;28;20574;-88
2021/01/05 04:56:07;;;;;;;22.40;15.23;;;2.90;99.90;;;;;;5020289;28;20474;-88
2021/01/05 04:58:38;;;;;;;23.40;15.77;;;2.90;99.90;;;;;;5019150;28;20853;-88
2021/01/05 05:01:08;;;;;;;25.33;16.25;;;2.90;99.90;;;;;;5019899;28;20445;-88
2021/01/05 05:03:44;;;;;;;21.20;15.20;;;2.90;99.90;;;;;;5018723;28;20213;-88
2021/01/05 05:06:26;;;;;;;21.35;15.18;;;2.90;99.90;;;;;;5017833;28;20533;-88
2021/01/05 05:09:38;;;;;;;23.95;14.70;;;2.90;99.90;;;;;;5017979;28;20195;-90
2021/01/05 05:12:26;;;;;;;23.47;15.50;;;2.80;99.90;;;;;;5000071;28;20242;-88
2021/01/05 05:15:04;;;;;;;25.00;16.50;;;2.80;99.90;;;;;;5015771;28;20492;-89
2021/01/05 05:17:59;;;;;;;18.73;13.88;;;2.80;99.90;;;;;;4995976;28;20529;-88
2021/01/05 05:20:37;;;;;;;21.40;15.03;;;2.80;99.90;;;;;;4991007;28;20639;-88
2021/01/05 05:23:26;;;;;;;26.93;16.63;;;2.80;99.90;;;;;;5013580;28;20540;-89
2021/01/05 05:26:01;;;;;;;21.95;14.68;;;2.80;99.90;;;;;;5016541;28;20471;-88
2021/01/05 05:28:32;;;;;;;28.07;17.80;;;2.80;99.90;;;;;;5016698;28;20542;-88
2021/01/05 05:31:02;;;;;;;23.60;15.80;;;2.70;99.90;;;;;;5016481;28;20457;-89
2021/01/05 05:33:32;;;;;;;24.27;15.87;;;2.70;99.90;;;;;;5016709;28;20620;-88
2021/01/05 05:36:17;;;;;;;27.20;17.03;;;2.80;99.90;;;;;;5016254;28;20477;-88
2021/01/05 05:39:02;;;;;;;23.17;14.63;;;2.70;99.90;;;;;;5016615;28;20828;-88
2021/01/05 05:41:36;;;;;;;26.47;17.03;;;2.80;99.90;;;;;;5018121;28;20614;-88
2021/01/05 05:44:22;;;;;;;21.47;15.80;;;2.90;99.90;;;;;;5017726;28;20434;-88
2021/01/05 05:46:54;;;;;;;26.00;15.53;;;2.90;99.90;;;;;;5017622;28;20532;-88
2021/01/05 05:49:40;;;;;;;21.77;14.50;;;2.90;99.90;;;;;;5016134;28;20462;-89
2021/01/05 05:52:28;;;;;;;23.40;16.23;;;2.90;99.90;;;;;;5017776;28;20529;-88
2021/01/05 05:54:58;;;;;;;26.93;15.07;;;2.80;99.90;;;;;;5017974;28;20474;-88
2021/01/05 05:57:40;;;;;;;23.03;14.87;;;2.80;99.90;;;;;;5015598;28;20537;-88
2021/01/05 06:00:21;;;;;;;23.47;15.63;;;2.90;99.90;;;;;;5016522;28;20452;-88
2021/01/05 06:02:48;;;;;;;21.33;15.43;;;2.90;99.90;;;;;;5012862;28;20462;-88
2021/01/05 06:05:21;;;;;;;25.10;15.93;;;3.00;99.90;;;;;;5016368;28;20470;-89
2021/01/05 06:07:47;;;;;;;20.63;13.50;;;2.90;99.90;;;;;;5017189;28;20440;-88
2021/01/05 06:10:15;;;;;;;24.00;14.63;;;3.00;99.90;;;;;;5017517;28;20450;-88
2021/01/05 06:12:41;;;;;;;23.53;15.77;;;3.00;99.90;;;;;;5017535;28;20454;-88
2021/01/05 06:15:10;;;;;;;24.53;15.93;;;3.00;99.90;;;;;;5016813;28;20589;-89
2021/01/05 06:17:36;;;;;;;25.97;15.30;;;3.10;99.90;;;;;;5015210;28;20559;-88
2021/01/05 06:20:03;;;;;;;21.63;15.30;;;3.10;99.90;;;;;;5012359;28;20796;-88
2021/01/05 06:22:29;;;;;;;20.83;14.27;;;3.00;99.90;;;;;;5018780;28;20461;-87
2021/01/05 06:24:56;;;;;;;25.60;15.60;;;3.00;99.90;;;;;;5032744;28;20518;-88
2021/01/05 06:27:23;;;;;;;24.73;15.50;;;3.10;99.90;;;;;;5017486;28;20451;-89
2021/01/05 06:29:49;;;;;;;24.97;16.57;;;3.00;99.90;;;;;;5018024;28;20515;-88
2021/01/05 06:32:16;;;;;;;27.60;16.70;;;3.00;99.90;;;;;;5019239;28;20957;-88
2021/01/05 06:34:42;;;;;;;22.87;14.30;;;3.00;99.90;;;;;;5016343;28;20486;-88
2021/01/05 06:37:08;;;;;;;25.90;16.53;;;3.00;99.90;;;;;;5017045;28;20547;-88
2021/01/05 06:39:35;;;;;;;26.63;17.10;;;3.00;99.90;;;;;;5017021;28;20544;-88
2021/01/05 06:42:01;;;;;;;25.27;15.47;;;3.00;99.90;;;;;;5015255;28;20504;-88
2021/01/05 06:44:28;;;;;;;30.90;18.87;;;3.00;99.90;;;;;;5015309;28;20523;-88
2021/01/05 06:46:55;;;;;;;25.63;16.50;;;3.00;99.90;;;;;;5016783;28;20451;-88
2021/01/05 06:49:21;;;;;;;29.20;17.43;;;3.00;99.90;;;;;;5015876;28;20493;-90
2021/01/05 06:51:47;;;;;;;29.33;16.57;;;3.00;99.90;;;;;;5015340;28;20985;-90
2021/01/05 06:54:14;;;;;;;27.70;17.00;;;3.00;99.90;;;;;;5015264;28;20547;-90
2021/01/05 06:56:48;;;;;;;25.17;16.50;;;3.00;99.90;;;;;;5015927;28;20464;-90
2021/01/05 06:59:15;;;;;;;24.63;16.73;;;3.00;99.90;;;;;;5016192;28;20437;-90
2021/01/05 07:01:42;;;;;;;29.73;17.67;;;3.00;99.90;;;;;;5015630;28;20461;-90
2021/01/05 07:04:08;;;;;;;27.60;17.20;;;3.00;99.90;;;;;;5016079;28;20942;-89
2021/01/05 07:06:34;;;;;;;28.73;18.30;;;2.90;99.90;;;;;;5015634;28;20780;-90
2021/01/05 07:09:01;;;;;;;29.37;18.17;;;2.90;99.90;;;;;;5018357;28;20450;-90
2021/01/05 07:11:27;;;;;;;28.17;16.93;;;2.90;99.90;;;;;;5018294;28;20561;-89
2021/01/05 07:13:54;;;;;;;25.57;16.70;;;2.90;99.90;;;;;;5015148;28;20462;-90
2021/01/05 07:16:20;;;;;;;25.67;16.77;;;3.00;99.90;;;;;;5013680;28;20497;-91
2021/01/05 07:18:47;;;;;;;29.83;17.60;;;3.00;99.90;;;;;;5014574;28;20520;-90
2021/01/05 07:21:13;;;;;;;28.67;18.37;;;3.00;99.90;;;;;;5013967;28;20495;-90
2021/01/05 07:23:40;;;;;;;24.23;15.98;;;2.90;99.90;;;;;;5014779;28;20448;-90
2021/01/05 07:26:06;;;;;;;27.70;19.25;;;2.90;99.90;;;;;;5015378;28;20215;-90
2021/01/05 07:28:32;;;;;;;28.30;18.45;;;3.00;99.90;;;;;;5014032;28;20295;-89
2021/01/05 07:30:59;;;;;;;33.03;18.35;;;2.90;99.90;;;;;;5018519;28;20252;-90
2021/01/05 07:33:25;;;;;;;26.10;18.03;;;2.90;99.90;;;;;;5017333;28;20583;-91
2021/01/05 07:35:52;;;;;;;31.00;17.43;;;2.90;99.90;;;;;;5019644;28;20492;-89
2021/01/05 07:38:20;;;;;;;33.03;19.20;;;3.00;99.90;;;;;;5020153;28;20996;-91
2021/01/05 07:40:46;;;;;;;26.60;17.87;;;3.00;99.90;;;;;;5015256;28;20469;-89
2021/01/05 07:43:12;;;;;;;26.47;17.80;;;3.00;99.90;;;;;;5005718;28;20517;-90
2021/01/05 07:45:39;;;;;;;33.67;19.03;;;3.00;99.90;;;;;;5024490;28;20676;-90
2021/01/05 07:48:05;;;;;;;23.40;16.07;;;3.00;99.90;;;;;;5011479;28;20780;-90
2021/01/05 07:50:32;;;;;;;29.95;19.23;;;3.00;99.90;;;;;;5018439;28;20904;-90
2021/01/05 07:53:00;;;;;;;24.53;16.20;;;3.00;99.90;;;;;;5006687;28;20644;-90
2021/01/05 07:55:27;;;;;;;24.33;16.63;;;3.00;99.90;;;;;;5004918;28;20504;-90
2021/01/05 07:57:54;;;;;;;26.23;17.20;;;3.10;99.90;;;;;;5019898;28;20910;-90
2021/01/05 08:00:23;;;;;;;24.97;15.73;;;3.10;99.90;;;;;;5007176;28;20522;-88
2021/01/05 08:02:50;;;;;;;28.07;16.40;;;3.20;99.90;;;;;;5008949;28;20550;-84
2021/01/05 08:05:20;;;;;;;27.63;17.60;;;3.20;99.90;;;;;;5017395;28;20462;-85
2021/01/05 08:07:47;;;;;;;29.27;18.70;;;3.20;99.90;;;;;;5011056;28;20477;-84
2021/01/05 08:10:19;;;;;;;27.40;16.53;;;3.20;99.90;;;;;;5018440;28;20449;-84
2021/01/05 08:12:46;;;;;;;33.28;21.15;;;3.20;99.90;;;;;;5016652;28;20450;-85
2021/01/05 08:15:14;;;;;;;30.80;19.83;;;3.20;99.90;;;;;;5018602;28;20308;-89
2021/01/05 08:17:40;;;;;;;28.90;19.23;;;3.20;99.90;;;;;;5017745;28;20429;-89
2021/01/05 08:20:07;;;;;;;29.93;18.80;;;3.20;99.90;;;;;;5019057;28;21006;-88
2021/01/05 08:22:34;;;;;;;30.60;18.93;;;3.20;99.90;;;;;;5019834;28;20508;-89
2021/01/05 08:25:00;;;;;;;32.90;19.77;;;3.20;99.90;;;;;;5018866;28;20545;-89
2021/01/05 08:27:27;;;;;;;33.03;21.10;;;3.20;99.90;;;;;;5018567;28;20460;-85
2021/01/05 08:29:54;;;;;;;33.30;20.13;;;3.10;99.90;;;;;;5021421;28;20443;-89
2021/01/05 08:32:23;;;;;;;33.43;20.00;;;3.10;99.90;;;;;;5017782;28;20450;-91
2021/01/05 08:34:50;;;;;;;33.43;19.23;;;3.10;99.90;;;;;;5018918;28;20488;-87
2021/01/05 08:37:16;;;;;;;35.47;18.63;;;3.00;99.90;;;;;;5008962;28;20537;-88
2021/01/05 08:39:43;;;;;;;37.37;21.03;;;3.00;99.90;;;;;;5016302;28;20458;-88
2021/01/05 08:42:10;;;;;;;34.30;21.43;;;3.00;99.90;;;;;;5022341;28;20458;-88
2021/01/05 08:44:37;;;;;;;36.80;20.70;;;3.00;99.90;;;;;;5016450;28;20573;-88
2021/01/05 08:47:04;;;;;;;38.63;21.13;;;3.00;99.90;;;;;;5025638;28;20497;-87
2021/01/05 08:49:32;;;;;;;31.80;18.63;;;3.10;99.90;;;;;;5015397;28;20561;-88
2021/01/05 08:51:59;;;;;;;34.30;19.00;;;3.10;99.90;;;;;;5017855;28;20458;-88
2021/01/05 08:54:26;;;;;;;31.97;19.43;;;3.20;99.90;;;;;;5012690;28;20446;-89
2021/01/05 08:56:53;;;;;;;33.60;19.93;;;3.20;99.90;;;;;;5011326;28;20534;-87
2021/01/05 08:59:22;;;;;;;39.33;21.67;;;3.20;99.90;;;;;;5015236;28;20524;-87
2021/01/05 09:01:49;;;;;;;34.63;19.87;;;3.30;99.90;;;;;;5029127;28;20449;-83
2021/01/05 09:04:16;;;;;;;30.37;18.60;;;3.20;99.90;;;;;;5016737;28;20549;-83
2021/01/05 09:06:47;;;;;;;29.50;18.10;;;3.20;99.90;;;;;;5013152;28;20981;-83
2021/01/05 09:09:14;;;;;;;34.87;19.87;;;3.20;99.90;;;;;;5016689;28;20450;-84
2021/01/05 09:11:40;;;;;;;33.23;19.60;;;3.20;99.90;;;;;;5012844;28;20486;-85
2021/01/05 09:14:07;;;;;;;33.30;18.00;;;3.20;99.90;;;;;;5010466;28;20485;-84
2021/01/05 09:16:33;;;;;;;33.40;20.57;;;3.20;99.90;;;;;;5008352;28;20581;-84
2021/01/05 09:19:01;;;;;;;32.03;18.10;;;3.20;99.90;;;;;;5004170;28;20472;-83
2021/01/05 09:21:29;;;;;;;36.10;20.00;;;3.20;99.90;;;;;;5016749;28;20549;-84
2021/01/05 09:24:19;;;;;;;31.00;19.47;;;3.20;99.90;;;;;;5017655;28;20775;-83
2021/01/05 09:26:50;;;;;;;31.17;19.53;;;3.20;99.90;;;;;;5033957;28;20441;-83
2021/01/05 09:29:17;;;;;;;32.43;18.77;;;3.20;99.90;;;;;;5006875;28;20450;-85
2021/01/05 09:31:45;;;;;;;30.48;18.27;;;3.30;99.90;;;;;;5018169;28;20982;-82
2021/01/05 09:34:16;;;;;;;30.60;19.30;;;3.30;99.90;;;;;;5028128;28;20289;-83
2021/01/05 09:36:43;;;;;;;30.90;18.10;;;3.30;99.90;;;;;;5025779;28;20924;-83
2021/01/05 09:39:12;;;;;;;29.57;18.13;;;3.30;99.90;;;;;;5016429;28;20822;-84
2021/01/05 09:41:41;;;;;;;33.93;20.00;;;3.20;99.90;;;;;;5015529;28;20459;-84
2021/01/05 09:44:09;;;;;;;31.07;21.00;;;3.40;99.90;;;;;;5015942;28;20895;-83
2021/01/05 09:46:38;;;;;;;28.20;17.10;;;3.30;99.90;;;;;;5018068;28;20511;-84
2021/01/05 09:49:05;;;;;;;34.80;19.40;;;3.40;99.90;;;;;;5034993;28;20465;-83
2021/01/05 09:51:33;;;;;;;30.10;18.77;;;3.30;99.90;;;;;;5026346;28;20480;-83
2021/01/05 09:53:59;;;;;;;28.50;16.17;;;3.20;99.90;;;;;;5017986;28;20548;-82
2021/01/05 09:56:26;;;;;;;32.97;17.27;;;3.30;99.90;;;;;;5026075;28;20588;-84
2021/01/05 09:58:52;;;;;;;33.23;18.13;;;3.30;99.90;;;;;;5026348;28;20981;-82
2021/01/05 10:01:24;;;;;;;36.53;18.30;;;3.40;99.90;;;;;;5015813;28;20449;-83
2021/01/05 10:03:51;;;;;;;29.27;18.40;;;3.30;99.90;;;;;;5017267;28;20195;-82
2021/01/05 10:06:17;;;;;;;27.17;17.03;;;3.30;99.90;;;;;;5022677;28;20462;-84
2021/01/05 10:08:44;;;;;;;29.37;18.60;;;3.30;99.90;;;;;;5031328;28;20535;-82
2021/01/05 10:11:11;;;;;;;32.33;18.23;;;3.30;99.90;;;;;;5022180;28;20442;-84
2021/01/05 10:13:37;;;;;;;30.83;18.53;;;3.30;99.90;;;;;;5015318;28;20451;-83
2021/01/05 10:16:04;;;;;;;36.33;20.67;;;3.30;99.90;;;;;;5010894;28;20497;-84
2021/01/05 10:18:30;;;;;;;30.67;17.70;;;3.30;99.90;;;;;;5006965;28;20542;-83
2021/01/05 10:20:57;;;;;;;30.33;17.37;;;3.40;99.90;;;;;;5002245;28;20455;-83
2021/01/05 10:23:23;;;;;;;28.63;17.50;;;3.30;99.90;;;;;;5029960;28;20536;-86
2021/01/05 10:25:50;;;;;;;30.23;20.15;;;3.40;99.90;;;;;;5030701;28;20454;-83
2021/01/05 10:28:17;;;;;;;28.90;17.57;;;3.40;99.90;;;;;;5015532;28;20294;-83
2021/01/05 10:30:44;;;;;;;32.87;19.33;;;3.40;99.90;;;;;;5005235;28;20457;-83
2021/01/05 10:33:10;;;;;;;30.10;17.30;;;3.50;99.90;;;;;;5030590;28;20446;-83
2021/01/05 10:35:37;;;;;;;29.97;17.13;;;3.40;99.90;;;;;;5022052;28;20567;-83
2021/01/05 10:38:03;;;;;;;29.17;17.20;;;3.40;99.90;;;;;;5031978;28;20585;-82
2021/01/05 10:40:29;;;;;;;30.17;17.20;;;3.50;99.90;;;;;;5034602;28;20953;-82
2021/01/05 10:42:57;;;;;;;35.57;20.10;;;3.50;99.90;;;;;;5028723;28;20453;-82
2021/01/05 10:45:27;;;;;;;29.07;16.70;;;3.50;99.90;;;;;;5018327;28;20504;-83
2021/01/05 10:47:53;;;;;;;27.47;16.00;;;3.60;99.90;;;;;;5014712;28;20465;-82
2021/01/05 10:50:22;;;;;;;30.50;16.30;;;3.60;99.90;;;;;;5016058;28;20541;-83
2021/01/05 10:52:50;;;;;;;31.73;18.57;;;3.60;99.90;;;;;;5006617;28;20492;-81
2021/01/05 10:55:23;;;;;;;24.23;16.00;;;3.60;99.90;;;;;;5015316;28;20483;-83
2021/01/05 10:57:50;;;;;;;30.03;16.77;;;3.70;99.90;;;;;;5014990;28;20438;-83
2021/01/05 11:00:21;;;;;;;28.77;15.50;;;3.70;99.90;;;;;;4997539;28;20447;-83
2021/01/05 11:02:47;;;;;;;27.40;16.87;;;3.70;99.90;;;;;;4995056;28;20442;-84
2021/01/05 11:05:16;;;;;;;30.07;17.67;;;3.70;99.90;;;;;;4994166;28;20551;-82
2021/01/05 11:07:43;;;;;;;28.37;16.97;;;3.80;99.90;;;;;;5008257;28;20535;-83
2021/01/05 11:10:11;;;;;;;30.17;16.80;;;3.80;99.90;;;;;;5014531;28;20779;-82
2021/01/05 11:12:38;;;;;;;33.67;19.37;;;3.60;99.90;;;;;;5011683;28;20491;-82
2021/01/05 11:15:06;;;;;;;31.23;17.43;;;3.60;99.90;;;;;;5013933;28;20495;-82
2021/01/05 11:17:33;;;;;;;29.00;18.77;;;3.70;99.90;;;;;;5011424;28;20540;-82
2021/01/05 11:20:00;;;;;;;29.07;16.80;;;3.70;99.90;;;;;;5014521;28;20462;-81
2021/01/05 11:22:27;;;;;;;27.80;17.77;;;3.80;99.90;;;;;;5014761;28;20454;-83
2021/01/05 11:24:53;;;;;;;31.23;20.47;;;3.80;99.90;;;;;;5014720;28;20495;-82
2021/01/05 11:27:19;;;;;;;36.27;19.50;;;3.60;99.90;;;;;;5013951;28;20457;-83
2021/01/05 11:29:46;;;;;;;31.80;18.60;;;3.70;99.90;;;;;;5013617;28;20774;-83
2021/01/05 11:32:14;;;;;;;31.47;19.87;;;3.70;99.90;;;;;;5014806;28;20549;-84
2021/01/05 11:34:42;;;;;;;32.17;19.40;;;3.80;99.90;;;;;;5014027;28;20927;-83
2021/01/05 11:37:11;;;;;;;31.70;18.60;;;3.70;99.90;;;;;;5014443;28;20467;-83
2021/01/05 11:39:42;;;;;;;34.27;21.03;;;3.70;99.90;;;;;;5014908;28;20523;-83
2021/01/05 11:42:09;;;;;;;31.10;19.47;;;3.70;99.90;;;;;;5014964;28;20505;-83
2021/01/05 11:44:36;;;;;;;37.17;22.20;;;3.70;99.90;;;;;;5013740;28;20584;-84
2021/01/05 11:47:02;;;;;;;38.60;23.90;;;3.60;99.90;;;;;;5014675;28;20532;-83
2021/01/05 11:49:28;;;;;;;43.40;24.27;;;3.50;99.90;;;;;;5013898;28;20489;-83
2021/01/05 11:51:56;;;;;;;48.60;24.33;;;3.50;99.90;;;;;;5014253;28;20456;-83
2021/01/05 11:54:24;;;;;;;38.13;23.20;;;3.50;99.90;;;;;;5014661;28;20779;-86
2021/01/05 11:56:55;;;;;;;42.70;24.50;;;3.60;99.90;;;;;;5013828;28;20878;-83
2021/01/05 11:59:21;;;;;;;46.20;23.80;;;3.60;99.90;;;;;;5014164;28;20522;-83
2021/01/05 12:01:48;;;;;;;41.93;24.17;;;3.60;99.90;;;;;;5013755;28;20452;-83
2021/01/05 12:04:14;;;;;;;45.00;25.50;;;3.60;99.90;;;;;;5014006;28;20435;-83
2021/01/05 12:06:45;;;;;;;40.57;24.00;;;3.70;99.90;;;;;;5014063;28;20424;-83
2021/01/05 12:09:13;;;;;;;40.90;22.57;;;3.60;99.90;;;;;;5014559;28;20921;-83
2021/01/05 12:11:39;;;;;;;39.83;24.50;;;3.60;99.90;;;;;;5013319;28;20461;-86
2021/01/05 12:14:05;;;;;;;36.20;21.50;;;3.70;99.90;;;;;;5013145;28;20485;-82
2021/01/05 12:16:34;;;;;;;39.87;23.73;;;3.60;99.90;;;;;;5013699;28;20981;-83
2021/01/05 12:19:02;;;;;;;41.40;23.77;;;3.70;99.90;;;;;;5017861;28;20458;-82
2021/01/05 12:21:31;;;;;;;40.47;23.33;;;3.70;99.90;;;;;;5016557;28;20541;-83
2021/01/05 12:23:58;;;;;;;49.33;26.43;;;3.70;99.90;;;;;;5016298;28;20455;-85
2021/01/05 12:26:29;;;;;;;37.63;21.93;;;3.50;99.90;;;;;;5016601;28;20538;-91
2021/01/05 12:28:57;;;;;;;39.97;23.73;;;3.60;99.90;;;;;;5016673;28;20529;-85
2021/01/05 12:31:24;;;;;;;36.10;23.40;;;3.50;99.90;;;;;;5016881;28;20535;-89
2021/01/05 12:33:51;;;;;;;37.33;22.27;;;3.60;99.90;;;;;;5016678;28;20456;-84
2021/01/05 12:36:26;;;;;;;36.37;21.80;;;3.60;99.90;;;;;;5016515;28;20485;-84
2021/01/05 12:38:53;;;;;;;34.80;21.43;;;3.60;99.90;;;;;;5016334;28;20894;-83
2021/01/05 12:41:19;;;;;;;32.03;20.10;;;3.60;99.90;;;;;;5016814;28;20553;-85
2021/01/05 12:43:46;;;;;;;36.73;21.57;;;3.60;99.90;;;;;;5016461;28;20446;-83
2021/01/05 12:46:22;;;;;;;32.03;19.63;;;3.60;99.90;;;;;;5016590;28;20538;-83
2021/01/05 12:48:48;;;;;;;30.60;18.20;;;3.60;99.90;;;;;;5016862;28;20475;-85
2021/01/05 12:51:15;;;;;;;31.87;18.20;;;3.70;99.90;;;;;;5016876;28;20483;-85
2021/01/05 12:53:41;;;;;;;29.57;19.57;;;3.80;99.90;;;;;;5003662;28;20483;-85
2021/01/05 12:56:08;;;;;;;30.00;17.67;;;3.80;99.90;;;;;;5005951;28;20897;-85
2021/01/05 12:58:34;;;;;;;29.17;18.83;;;3.80;99.90;;;;;;5001886;28;20458;-85
2021/01/05 13:01:01;;;;;;;31.63;18.23;;;3.70;99.90;;;;;;5015895;28;20554;-85
2021/01/05 13:03:28;;;;;;;29.87;18.73;;;3.70;99.90;;;;;;5015725;28;20503;-86
2021/01/05 13:05:54;;;;;;;21.40;14.57;;;3.70;99.90;;;;;;5016039;28;20940;-85
2021/01/05 13:08:21;;;;;;;25.50;15.87;;;3.70;99.90;;;;;;5015932;28;21011;-85
2021/01/05 13:10:48;;;;;;;24.10;14.30;;;3.60;99.90;;;;;;5016537;28;20460;-85